Nearby METAR Reports

 

KPMP - Pompano Beach, Florida, USA
Distance from station: NNW 3mi, 5km
Updated: 01/18/2018 8:53pm
Clear
Clear
 Wind from NNW
Wind: NNW 12 mph , 19 km/h
Temperature: 54°F , 12°C
Dew Point: 46°F , 8°C
Humidity: 77%
Barometer: 30.29 inHg , 1025.7 hPa
Clouds: Clear
Visibility: 10 miles , 16 km
2018/01/19 01:53 KPMP 190153Z 33010KT 10SM CLR 12/08 A3029 RMK AO2 SLP256 T01170083
KFXE - Ft Lauderd/Exec, Florida, USA
Distance from station: W 6mi, 9km
Updated: 01/18/2018 8:53pm
Clear
Clear
 Wind from NNW
Wind: NNW 8 mph , 13 km/h
Temperature: 52°F , 11°C
Dew Point: 46°F , 8°C
Humidity: 82%
Barometer: 30.29 inHg , 1025.7 hPa
Clouds: Clear
Visibility: 10 miles , 16 km
2018/01/19 01:53 KFXE 190153Z 34007KT 10SM CLR 11/08 A3029 RMK AO2 SLP258 T01110078 $
 
KFLL - Ft Lauderd/Holly, Florida, USA
Distance from station: SSW 11mi, 17km
Updated: 01/18/2018 7:53pm
Partly cloudy
Partly cloudy
 Wind from N
Wind: N 9 mph , 15 km/h
Temperature: 54°F , 12°C
Dew Point: 48°F , 9°C
Humidity: 82%
Barometer: 30.26 inHg , 1024.7 hPa
Clouds: Partly cloudy
Visibility: 10 miles , 16 km
Cloud details: Few Clouds 3500 ft
Partly cloudy 25000 ft
2018/01/19 00:53 KFLL 190053Z 35008KT 10SM FEW035 SCT250 12/09 A3026 RMK AO2 SLP247 T01220089
KBCT - Boca Raton, Florida, USA
Distance from station: N 12mi, 19km
Updated: 01/18/2018 8:47pm
Partly cloudy
Partly cloudy
 Wind from NNW
Wind: NNW 10 mph , 17 km/h
Clouds: Partly cloudy
Visibility: 10 miles , 16 km
Cloud details: Partly cloudy 3300 ft
2018/01/19 01:47 KBCT 190147Z 33009KT 10SM SCT033 11/7 A3029
 
KHWO - Hollywood, Florida, USA
Distance from station: SSW 17mi, 27km
Updated: 01/18/2018 8:53pm
Clear
Clear
 Wind from N
Wind: N 12 mph , 19 km/h
Barometer: 30.30 inHg , 1026.1 hPa
Clouds: Clear
Visibility: 10 miles , 16 km
2018/01/19 01:53 KHWO 190153Z 35010KT 10SM CLR A3030 RMK AO2 SLP262 PNO $
KOPF - Miami/Opa Locka, Florida, USA
Distance from station: SSW 24mi, 38km
Updated: 01/18/2018 8:53pm
Clear
Clear
 Wind from N
Wind: N 10 mph , 17 km/h
Temperature: 54°F , 12°C
Dew Point: 46°F , 8°C
Humidity: 77%
Barometer: 30.29 inHg , 1025.7 hPa
Clouds: Clear
Visibility: 10 miles , 16 km
2018/01/19 01:53 KOPF 190153Z 35009KT 10SM CLR 12/08 A3029 RMK AO2 SLP258 T01220083
 
KMIA - Miami, Florida, USA
Distance from station: SSW 31mi, 50km
Updated: 01/18/2018 8:53pm
Mostly cloudy
Mostly cloudy
 Wind from NNW
Wind: NNW 6 mph , 9 km/h, Gust: 16 mph , 26 km/h
Temperature: 55°F , 13°C
Dew Point: 46°F , 8°C
Humidity: 72%
Barometer: 30.28 inHg , 1025.4 hPa
Clouds: Mostly cloudy
Visibility: 10 miles , 16 km
Cloud details: Few Clouds 3300 ft
Mostly cloudy 25000 ft
2018/01/19 01:53 KMIA 190153Z 34005G14KT 10SM FEW033 BKN250 13/08 A3028 RMK AO2 SLP255 T01330083
KPBI - West Palm Beach, Florida, USA
Distance from station: N 33mi, 52km
Updated: 01/18/2018 8:53pm
Partly cloudy
Partly cloudy
 Wind from NNW
Wind: NNW 10 mph , 17 km/h
Temperature: 52°F , 11°C
Dew Point: 43°F , 6°C
Humidity: 72%
Barometer: 30.30 inHg , 1026.1 hPa
Clouds: Partly cloudy
Visibility: 10 miles , 16 km
Cloud details: Partly cloudy 4500 ft
2018/01/19 01:53 KPBI 190153Z 33009KT 10SM SCT045 11/06 A3030 RMK AO2 SLP259 T01060061 $
 
KTMB - Miami/Tamiami, Florida, USA
Distance from station: SSW 44mi, 71km
Updated: 01/18/2018 8:53pm
Clear
Clear
 Wind from N
Wind: N 13 mph , 20 km/h
Temperature: 52°F , 11°C
Dew Point: 45°F , 7°C
Humidity: 77%
Barometer: 30.28 inHg , 1025.4 hPa
Clouds: Clear
Visibility: 10 miles , 16 km
2018/01/19 01:53 KTMB 190153Z 35011KT 10SM CLR 11/07 A3028 RMK AO2 SLP254 T01110067